Hjaltland — VSTY8 — position and weather

sailwx.info

Track history (hours):
 
Tides and Currents Weather Stations Pressure Air Temp Water Temp Dewpoint Dewpoint Depression Visibility Wind Speed Wind Dir Waves Ship Positions

Hjaltland

Operator: NorthLink Orkey & Shetland Ferries Ltd

Last reported at 2017-Apr-24 21:09 UTC. Time now 2017-Apr-25 02:52 UTC.
Position N 57°52' W 001°36'.

Type: Passenger vessel. MMSI: 235450000.

Date/timePositionNaut miles runAvg speedWind from/ knotsBaromVisibWave heightAir tempDewpointWater temp
2017-Apr-24 21:09N 57°52' W 001°36'715.7
2017-Apr-24 20:43N 57°46' W 001°36'315.5
2017-Apr-24 20:30N 57°42' W 001°36'815.0
2017-Apr-24 20:00N 57°35' W 001°38'915.0
2017-Apr-24 19:23N 57°26' W 001°40'715.7
2017-Apr-24 18:55N 57°19' W 001°46'716.4
2017-Apr-24 18:30N 57°14' W 001°54'815.3
2017-Apr-24 18:00N 57°09' W 002°04'1 1.5
2017-Apr-24 17:28N 57°09' W 002°05'0 0.0
2017-Apr-24 16:58N 57°09' W 002°05'0 0.0
2017-Apr-24 16:28N 57°09' W 002°05'0 0.0
2017-Apr-24 15:58N 57°09' W 002°05'0 0.0
2017-Apr-24 15:25N 57°09' W 002°05'0 0.0
2017-Apr-24 14:59N 57°09' W 002°05'0 0.0
2017-Apr-24 14:29N 57°09' W 002°05'0 0.0
2017-Apr-24 13:29N 57°09' W 002°05'0 0.0
2017-Apr-24 12:59N 57°09' W 002°05'0 0.0
2017-Apr-24 12:29N 57°09' W 002°05'0 0.0
2017-Apr-24 11:59N 57°09' W 002°05'0 0.0
2017-Apr-24 11:29N 57°09' W 002°05'0 0.0
2017-Apr-24 10:59N 57°09' W 002°05'0 0.0
2017-Apr-24 10:29N 57°09' W 002°05'0 0.0
2017-Apr-24 09:59N 57°09' W 002°05'0 0.0
2017-Apr-24 09:29N 57°09' W 002°05'0 0.0
2017-Apr-24 08:59N 57°09' W 002°05'0 0.0
2017-Apr-24 08:29N 57°09' W 002°05'0 0.0
2017-Apr-24 07:59N 57°09' W 002°05'0 0.0
2017-Apr-24 07:29N 57°09' W 002°05'0 0.0
2017-Apr-24 06:59N 57°09' W 002°05'0 0.0
2017-Apr-24 06:29N 57°09' W 002°05'0 0.0
2017-Apr-24 05:59N 57°09' W 002°05'1 1.2
2017-Apr-24 05:31N 57°08' W 002°04'713.1
2017-Apr-24 05:00N 57°13' W 001°56'2016.2
2017-Apr-24 03:45N 57°31' W 001°37'518.0
2017-Apr-24 03:29N 57°36' W 001°37'918.0
2017-Apr-24 03:00N 57°44' W 001°37'84 3.1
2017-Apr-23 00:18N 59°04' W 002°27'413.2
2017-Apr-22 23:57N 59°01' W 002°33'613.0
2017-Apr-22 23:30N 59°01' W 002°44'713.2
2017-Apr-22 23:00N 59°01' W 002°57'1 1.7
2017-Apr-22 22:06N 58°60' W 002°58'0 2.5
2017-Apr-22 22:00N 59°00' W 002°58'917.9
2017-Apr-22 21:31N 58°59' W 002°41'7321.7
2017-Apr-22 18:09N 57°52' W 001°48'322.2
2017-Apr-22 18:00N 57°48' W 001°46'1021.0
2017-Apr-22 17:30N 57°38' W 001°42'1121.4
2017-Apr-22 16:59N 57°27' W 001°39'1122.5
2017-Apr-22 16:30N 57°18' W 001°50'1122.6
2017-Apr-22 16:00N 57°09' W 002°03'2 3.0
2017-Apr-22 15:30N 57°09' W 002°05'0 0.0
2017-Apr-22 15:00N 57°09' W 002°05'0 0.0
2017-Apr-22 14:30N 57°09' W 002°05'0 0.0
2017-Apr-22 13:30N 57°09' W 002°05'0 0.0
2017-Apr-22 13:00N 57°09' W 002°05'0 0.0
2017-Apr-22 12:30N 57°09' W 002°05'0 0.0
2017-Apr-22 12:00N 57°09' W 002°05'0 0.0
2017-Apr-22 11:30N 57°09' W 002°05'0 0.0
2017-Apr-22 11:00N 57°09' W 002°05'0 0.0
2017-Apr-22 10:30N 57°09' W 002°05'0 0.0
2017-Apr-22 10:00N 57°09' W 002°05'0 0.0
2017-Apr-22 09:30N 57°09' W 002°05'0 0.0
2017-Apr-22 09:00N 57°09' W 002°05'0 0.0
2017-Apr-22 08:30N 57°09' W 002°05'0 0.0
2017-Apr-22 08:00N 57°09' W 002°05'0 0.0
2017-Apr-22 07:30N 57°09' W 002°05'0 0.0
2017-Apr-22 07:00N 57°09' W 002°05'0 0.0
2017-Apr-22 06:30N 57°09' W 002°05'0 0.0
2017-Apr-22 06:00N 57°09' W 002°05'1 1.1
2017-Apr-22 05:31N 57°09' W 002°05'611.6
2017-Apr-22 05:00N 57°13' W 001°57'1418.3
2017-Apr-22 04:14N 57°24' W 001°42'521.6
2017-Apr-22 04:00N 57°29' W 001°38'1122.3
2017-Apr-22 03:30N 57°40' W 001°40'1122.1
2017-Apr-22 03:00N 57°50' W 001°48'6922.6
2017-Apr-21 23:57N 58°54' W 002°36'920.1
2017-Apr-21 23:30N 59°00' W 002°49'5 2.9
2017-Apr-21 21:52N 58°60' W 002°58'2 4.9
2017-Apr-21 21:30N 59°01' W 002°56'918.5
2017-Apr-21 21:00N 59°01' W 002°38'6 0.3
2017-Apr-21 00:34N 59°03' W 002°28'113.2
2017-Apr-21 00:30N 59°02' W 002°29'612.4
2017-Apr-21 00:00N 59°00' W 002°41'613.0
2017-Apr-20 23:30N 59°01' W 002°53'3 1.8
2017-Apr-20 22:00N 58°60' W 002°58'816.8
2017-Apr-20 21:30N 58°59' W 002°42'1922.7
2017-Apr-20 20:40N 58°41' W 002°32'622.7
2017-Apr-20 20:24N 58°35' W 002°29'5122.4
2017-Apr-20 18:08N 57°46' W 002°03'322.5
2017-Apr-20 18:00N 57°43' W 002°02'1019.8
2017-Apr-20 17:30N 57°38' W 001°46'1121.8
2017-Apr-20 17:00N 57°27' W 001°42'1122.2
2017-Apr-20 16:31N 57°18' W 001°53'1121.6
2017-Apr-20 16:01N 57°09' W 002°03'1 2.1
2017-Apr-20 15:29N 57°09' W 002°05'0 0.0
2017-Apr-20 14:59N 57°09' W 002°05'0 0.0
2017-Apr-20 13:59N 57°09' W 002°05'0 0.0
2017-Apr-20 13:29N 57°09' W 002°05'0 0.0
2017-Apr-20 12:59N 57°09' W 002°05'0 0.0
2017-Apr-20 12:29N 57°09' W 002°05'0 0.0
2017-Apr-20 11:59N 57°09' W 002°05'0 0.0
2017-Apr-20 11:28N 57°09' W 002°05'0 0.0
2017-Apr-20 10:58N 57°09' W 002°05'0 0.0
2017-Apr-20 10:28N 57°09' W 002°05'0 0.0
2017-Apr-20 09:58N 57°09' W 002°05'0 0.0
2017-Apr-20 09:28N 57°09' W 002°05'0 0.0
2017-Apr-20 08:58N 57°09' W 002°05'0 0.0
2017-Apr-20 08:28N 57°09' W 002°05'0 0.0
2017-Apr-20 07:58N 57°09' W 002°05'0 0.0
2017-Apr-20 07:28N 57°09' W 002°05'0 0.0
2017-Apr-20 06:58N 57°09' W 002°05'0 0.0
2017-Apr-20 06:28N 57°09' W 002°05'0 0.0
2017-Apr-20 05:58N 57°09' W 002°05'0 1.1
2017-Apr-20 05:30N 57°09' W 002°05'611.5
2017-Apr-20 05:01N 57°12' W 001°57'1015.6
2017-Apr-20 04:23N 57°21' W 001°46'1019.0
2017-Apr-20 03:49N 57°30' W 001°37'722.9
2017-Apr-20 03:31N 57°37' W 001°39'1323.1
2017-Apr-20 02:58N 57°49' W 001°47'7022.8
2017-Apr-19 23:54N 58°54' W 002°37'820.2
2017-Apr-19 23:30N 59°00' W 002°46'612.6
2017-Apr-19 23:00N 58°60' W 002°58'0 0.0
2017-Apr-19 22:27N 58°60' W 002°58'0 0.0
2017-Apr-19 21:47N 58°60' W 002°58'1 3.3
2017-Apr-19 21:30N 59°01' W 002°58'816.4
2017-Apr-19 21:00N 59°01' W 002°41'8 0.4
2017-Apr-19 00:23N 59°04' W 002°27'613.3
2017-Apr-18 23:58N 59°00' W 002°35'613.9
2017-Apr-18 23:30N 59°01' W 002°47'611.4
2017-Apr-18 23:00N 58°60' W 002°58'0 0.2
2017-Apr-18 22:29N 58°60' W 002°58'0 0.0
2017-Apr-18 22:00N 58°60' W 002°58'3 6.3
2017-Apr-18 21:31N 59°01' W 002°53'1020.7
2017-Apr-18 21:00N 58°55' W 002°36'6823.4
2017-Apr-18 18:07N 57°52' W 001°49'422.9
2017-Apr-18 17:57N 57°48' W 001°46'1022.0
2017-Apr-18 17:30N 57°39' W 001°42'1121.8
2017-Apr-18 16:59N 57°27' W 001°43'1022.0
2017-Apr-18 16:30N 57°18' W 001°52'1122.1
2017-Apr-18 16:00N 57°09' W 002°03'1 2.6
2017-Apr-18 15:28N 57°09' W 002°05'0 0.0
2017-Apr-18 14:58N 57°09' W 002°05'0 0.0
2017-Apr-18 14:28N 57°09' W 002°05'0 0.0
2017-Apr-18 13:28N 57°09' W 002°05'0 0.0
2017-Apr-18 12:58N 57°09' W 002°05'0 0.0
2017-Apr-18 12:29N 57°09' W 002°05'0 0.0
2017-Apr-18 11:59N 57°09' W 002°05'0 0.0
2017-Apr-18 11:29N 57°09' W 002°05'0 0.0
2017-Apr-18 10:59N 57°09' W 002°05'0 0.0
2017-Apr-18 10:29N 57°09' W 002°05'0 0.0
2017-Apr-18 09:59N 57°09' W 002°05'0 0.0
2017-Apr-18 09:29N 57°09' W 002°05'0 0.0
2017-Apr-18 08:59N 57°09' W 002°05'0 0.0
2017-Apr-18 08:29N 57°09' W 002°05'0 0.0
2017-Apr-18 08:01N 57°09' W 002°05'0 0.0
2017-Apr-18 07:28N 57°09' W 002°05'0 0.0
2017-Apr-18 07:01N 57°09' W 002°05'0 0.0
2017-Apr-18 06:28N 57°09' W 002°05'0 0.0
2017-Apr-18 06:01N 57°09' W 002°05'1 1.2
2017-Apr-18 05:30N 57°08' W 002°04'611.6
2017-Apr-18 05:00N 57°13' W 001°57'815.3
2017-Apr-18 04:30N 57°19' W 001°49'815.2
2017-Apr-18 03:57N 57°26' W 001°40'919.0
2017-Apr-18 03:30N 57°34' W 001°39'8821.7
2017-Apr-17 23:25N 58°57' W 002°38'819.1
2017-Apr-17 23:00N 59°01' W 002°52'4 3.4
2017-Apr-17 21:58N 58°60' W 002°58'4 9.3
2017-Apr-17 21:30N 59°01' W 002°50'12 0.6
2017-Apr-17 00:02N 59°04' W 002°27'012.5
2017-Apr-17 00:01N 59°04' W 002°27'611.8
2017-Apr-16 23:29N 59°00' W 002°37'714.2
2017-Apr-16 23:01N 59°01' W 002°50'4 3.8
2017-Apr-16 21:54N 58°60' W 002°58'4 9.1
2017-Apr-16 21:30N 59°01' W 002°51'1020.6
2017-Apr-16 21:00N 58°55' W 002°35'7123.2
2017-Apr-16 17:56N 57°48' W 001°45'922.3
2017-Apr-16 17:30N 57°39' W 001°43'1122.2
2017-Apr-16 17:00N 57°28' W 001°43'1121.9
2017-Apr-16 16:30N 57°18' W 001°51'1121.6
2017-Apr-16 16:00N 57°09' W 002°03'2 2.9
2017-Apr-16 15:28N 57°09' W 002°05'0 0.0
2017-Apr-16 14:58N 57°09' W 002°05'0 0.0
2017-Apr-16 14:28N 57°09' W 002°05'0 0.0
2017-Apr-16 13:28N 57°09' W 002°05'0 0.0
2017-Apr-16 12:58N 57°09' W 002°05'0 0.0
2017-Apr-16 12:28N 57°09' W 002°05'0 0.0
2017-Apr-16 11:58N 57°09' W 002°05'0 0.0
2017-Apr-16 11:28N 57°09' W 002°05'0 0.0
2017-Apr-16 10:58N 57°09' W 002°05'0 0.0
2017-Apr-16 10:28N 57°09' W 002°05'0 0.0
2017-Apr-16 09:58N 57°09' W 002°05'0 0.0
2017-Apr-16 09:28N 57°09' W 002°05'0 0.0
2017-Apr-16 08:58N 57°09' W 002°05'0 0.0
2017-Apr-16 08:28N 57°09' W 002°05'0 0.0
2017-Apr-16 07:58N 57°09' W 002°05'0 0.0
2017-Apr-16 07:28N 57°09' W 002°05'0 0.0
2017-Apr-16 06:58N 57°09' W 002°05'0 0.0
2017-Apr-16 06:28N 57°09' W 002°05'0 0.0
2017-Apr-16 05:58N 57°09' W 002°05'1 1.2
2017-Apr-16 05:31N 57°09' W 002°04'611.4
2017-Apr-16 05:00N 57°13' W 001°57'815.4
2017-Apr-16 04:29N 57°19' W 001°49'1116.9
2017-Apr-16 03:51N 57°28' W 001°38'  
Track history (hours):
 
Tides and Currents Weather Stations Pressure Air Temp Water Temp Dewpoint Dewpoint Depression Visibility Wind Speed Wind Dir Waves Ship Positions

Hjaltland

Operator: NorthLink Orkey & Shetland Ferries Ltd

Last reported at 2017-Apr-24 21:09 UTC. Time now 2017-Apr-25 02:52 UTC.
Position N 57°52' W 001°36'.

Type: Passenger vessel. MMSI: 235450000.

Date/timePositionNaut miles runAvg speedWind from/ knotsBaromVisibWave heightAir tempDewpointWater temp
2017-Apr-24 21:09N 57°52' W 001°36'715.7
2017-Apr-24 20:43N 57°46' W 001°36'315.5
2017-Apr-24 20:30N 57°42' W 001°36'815.0
2017-Apr-24 20:00N 57°35' W 001°38'915.0
2017-Apr-24 19:23N 57°26' W 001°40'715.7
2017-Apr-24 18:55N 57°19' W 001°46'716.4
2017-Apr-24 18:30N 57°14' W 001°54'815.3
2017-Apr-24 18:00N 57°09' W 002°04'1 1.5
2017-Apr-24 17:28N 57°09' W 002°05'0 0.0
2017-Apr-24 16:58N 57°09' W 002°05'0 0.0
2017-Apr-24 16:28N 57°09' W 002°05'0 0.0
2017-Apr-24 15:58N 57°09' W 002°05'0 0.0
2017-Apr-24 15:25N 57°09' W 002°05'0 0.0
2017-Apr-24 14:59N 57°09' W 002°05'0 0.0
2017-Apr-24 14:29N 57°09' W 002°05'0 0.0
2017-Apr-24 13:29N 57°09' W 002°05'0 0.0
2017-Apr-24 12:59N 57°09' W 002°05'0 0.0
2017-Apr-24 12:29N 57°09' W 002°05'0 0.0
2017-Apr-24 11:59N 57°09' W 002°05'0 0.0
2017-Apr-24 11:29N 57°09' W 002°05'0 0.0
2017-Apr-24 10:59N 57°09' W 002°05'0 0.0
2017-Apr-24 10:29N 57°09' W 002°05'0 0.0
2017-Apr-24 09:59N 57°09' W 002°05'0 0.0
2017-Apr-24 09:29N 57°09' W 002°05'0 0.0
2017-Apr-24 08:59N 57°09' W 002°05'0 0.0
2017-Apr-24 08:29N 57°09' W 002°05'0 0.0
2017-Apr-24 07:59N 57°09' W 002°05'0 0.0
2017-Apr-24 07:29N 57°09' W 002°05'0 0.0
2017-Apr-24 06:59N 57°09' W 002°05'0 0.0
2017-Apr-24 06:29N 57°09' W 002°05'0 0.0
2017-Apr-24 05:59N 57°09' W 002°05'1 1.2
2017-Apr-24 05:31N 57°08' W 002°04'713.1
2017-Apr-24 05:00N 57°13' W 001°56'2016.2
2017-Apr-24 03:45N 57°31' W 001°37'518.0
2017-Apr-24 03:29N 57°36' W 001°37'918.0
2017-Apr-24 03:00N 57°44' W 001°37'84 3.1
2017-Apr-23 00:18N 59°04' W 002°27'413.2
2017-Apr-22 23:57N 59°01' W 002°33'613.0
2017-Apr-22 23:30N 59°01' W 002°44'713.2
2017-Apr-22 23:00N 59°01' W 002°57'1 1.7
2017-Apr-22 22:06N 58°60' W 002°58'0 2.5
2017-Apr-22 22:00N 59°00' W 002°58'917.9
2017-Apr-22 21:31N 58°59' W 002°41'7321.7
2017-Apr-22 18:09N 57°52' W 001°48'322.2
2017-Apr-22 18:00N 57°48' W 001°46'1021.0
2017-Apr-22 17:30N 57°38' W 001°42'1121.4
2017-Apr-22 16:59N 57°27' W 001°39'1122.5
2017-Apr-22 16:30N 57°18' W 001°50'1122.6
2017-Apr-22 16:00N 57°09' W 002°03'2 3.0
2017-Apr-22 15:30N 57°09' W 002°05'0 0.0
2017-Apr-22 15:00N 57°09' W 002°05'0 0.0
2017-Apr-22 14:30N 57°09' W 002°05'0 0.0
2017-Apr-22 13:30N 57°09' W 002°05'0 0.0
2017-Apr-22 13:00N 57°09' W 002°05'0 0.0
2017-Apr-22 12:30N 57°09' W 002°05'0 0.0
2017-Apr-22 12:00N 57°09' W 002°05'0 0.0
2017-Apr-22 11:30N 57°09' W 002°05'0 0.0
2017-Apr-22 11:00N 57°09' W 002°05'0 0.0
2017-Apr-22 10:30N 57°09' W 002°05'0 0.0
2017-Apr-22 10:00N 57°09' W 002°05'0 0.0
2017-Apr-22 09:30N 57°09' W 002°05'0 0.0
2017-Apr-22 09:00N 57°09' W 002°05'0 0.0
2017-Apr-22 08:30N 57°09' W 002°05'0 0.0
2017-Apr-22 08:00N 57°09' W 002°05'0 0.0
2017-Apr-22 07:30N 57°09' W 002°05'0 0.0
2017-Apr-22 07:00N 57°09' W 002°05'0 0.0
2017-Apr-22 06:30N 57°09' W 002°05'0 0.0
2017-Apr-22 06:00N 57°09' W 002°05'1 1.1
2017-Apr-22 05:31N 57°09' W 002°05'611.6
2017-Apr-22 05:00N 57°13' W 001°57'1418.3
2017-Apr-22 04:14N 57°24' W 001°42'521.6
2017-Apr-22 04:00N 57°29' W 001°38'1122.3
2017-Apr-22 03:30N 57°40' W 001°40'1122.1
2017-Apr-22 03:00N 57°50' W 001°48'6922.6
2017-Apr-21 23:57N 58°54' W 002°36'920.1
2017-Apr-21 23:30N 59°00' W 002°49'5 2.9
2017-Apr-21 21:52N 58°60' W 002°58'2 4.9
2017-Apr-21 21:30N 59°01' W 002°56'918.5
2017-Apr-21 21:00N 59°01' W 002°38'6 0.3
2017-Apr-21 00:34N 59°03' W 002°28'113.2
2017-Apr-21 00:30N 59°02' W 002°29'612.4
2017-Apr-21 00:00N 59°00' W 002°41'613.0
2017-Apr-20 23:30N 59°01' W 002°53'3 1.8
2017-Apr-20 22:00N 58°60' W 002°58'816.8
2017-Apr-20 21:30N 58°59' W 002°42'1922.7
2017-Apr-20 20:40N 58°41' W 002°32'622.7
2017-Apr-20 20:24N 58°35' W 002°29'5122.4
2017-Apr-20 18:08N 57°46' W 002°03'322.5
2017-Apr-20 18:00N 57°43' W 002°02'1019.8
2017-Apr-20 17:30N 57°38' W 001°46'1121.8
2017-Apr-20 17:00N 57°27' W 001°42'1122.2
2017-Apr-20 16:31N 57°18' W 001°53'1121.6
2017-Apr-20 16:01N 57°09' W 002°03'1 2.1
2017-Apr-20 15:29N 57°09' W 002°05'0 0.0
2017-Apr-20 14:59N 57°09' W 002°05'0 0.0
2017-Apr-20 13:59N 57°09' W 002°05'0 0.0
2017-Apr-20 13:29N 57°09' W 002°05'0 0.0
2017-Apr-20 12:59N 57°09' W 002°05'0 0.0
2017-Apr-20 12:29N 57°09' W 002°05'0 0.0
2017-Apr-20 11:59N 57°09' W 002°05'0 0.0
2017-Apr-20 11:28N 57°09' W 002°05'0 0.0
2017-Apr-20 10:58N 57°09' W 002°05'0 0.0
2017-Apr-20 10:28N 57°09' W 002°05'0 0.0
2017-Apr-20 09:58N 57°09' W 002°05'0 0.0
2017-Apr-20 09:28N 57°09' W 002°05'0 0.0
2017-Apr-20 08:58N 57°09' W 002°05'0 0.0
2017-Apr-20 08:28N 57°09' W 002°05'0 0.0
2017-Apr-20 07:58N 57°09' W 002°05'0 0.0
2017-Apr-20 07:28N 57°09' W 002°05'0 0.0
2017-Apr-20 06:58N 57°09' W 002°05'0 0.0
2017-Apr-20 06:28N 57°09' W 002°05'0 0.0
2017-Apr-20 05:58N 57°09' W 002°05'0 1.1
2017-Apr-20 05:30N 57°09' W 002°05'611.5
2017-Apr-20 05:01N 57°12' W 001°57'1015.6
2017-Apr-20 04:23N 57°21' W 001°46'1019.0
2017-Apr-20 03:49N 57°30' W 001°37'722.9
2017-Apr-20 03:31N 57°37' W 001°39'1323.1
2017-Apr-20 02:58N 57°49' W 001°47'7022.8
2017-Apr-19 23:54N 58°54' W 002°37'820.2
2017-Apr-19 23:30N 59°00' W 002°46'612.6
2017-Apr-19 23:00N 58°60' W 002°58'0 0.0
2017-Apr-19 22:27N 58°60' W 002°58'0 0.0
2017-Apr-19 21:47N 58°60' W 002°58'1 3.3
2017-Apr-19 21:30N 59°01' W 002°58'816.4
2017-Apr-19 21:00N 59°01' W 002°41'8 0.4
2017-Apr-19 00:23N 59°04' W 002°27'613.3
2017-Apr-18 23:58N 59°00' W 002°35'613.9
2017-Apr-18 23:30N 59°01' W 002°47'611.4
2017-Apr-18 23:00N 58°60' W 002°58'0 0.2
2017-Apr-18 22:29N 58°60' W 002°58'0 0.0
2017-Apr-18 22:00N 58°60' W 002°58'3 6.3
2017-Apr-18 21:31N 59°01' W 002°53'1020.7
2017-Apr-18 21:00N 58°55' W 002°36'6823.4
2017-Apr-18 18:07N 57°52' W 001°49'422.9
2017-Apr-18 17:57N 57°48' W 001°46'1022.0
2017-Apr-18 17:30N 57°39' W 001°42'1121.8
2017-Apr-18 16:59N 57°27' W 001°43'1022.0
2017-Apr-18 16:30N 57°18' W 001°52'1122.1
2017-Apr-18 16:00N 57°09' W 002°03'1 2.6
2017-Apr-18 15:28N 57°09' W 002°05'0 0.0
2017-Apr-18 14:58N 57°09' W 002°05'0 0.0
2017-Apr-18 14:28N 57°09' W 002°05'0 0.0
2017-Apr-18 13:28N 57°09' W 002°05'0 0.0
2017-Apr-18 12:58N 57°09' W 002°05'0 0.0
2017-Apr-18 12:29N 57°09' W 002°05'0 0.0
2017-Apr-18 11:59N 57°09' W 002°05'0 0.0
2017-Apr-18 11:29N 57°09' W 002°05'0 0.0
2017-Apr-18 10:59N 57°09' W 002°05'0 0.0
2017-Apr-18 10:29N 57°09' W 002°05'0 0.0
2017-Apr-18 09:59N 57°09' W 002°05'0 0.0
2017-Apr-18 09:29N 57°09' W 002°05'0 0.0
2017-Apr-18 08:59N 57°09' W 002°05'0 0.0
2017-Apr-18 08:29N 57°09' W 002°05'0 0.0
2017-Apr-18 08:01N 57°09' W 002°05'0 0.0
2017-Apr-18 07:28N 57°09' W 002°05'0 0.0
2017-Apr-18 07:01N 57°09' W 002°05'0 0.0
2017-Apr-18 06:28N 57°09' W 002°05'0 0.0
2017-Apr-18 06:01N 57°09' W 002°05'1 1.2
2017-Apr-18 05:30N 57°08' W 002°04'611.6
2017-Apr-18 05:00N 57°13' W 001°57'815.3
2017-Apr-18 04:30N 57°19' W 001°49'815.2
2017-Apr-18 03:57N 57°26' W 001°40'919.0
2017-Apr-18 03:30N 57°34' W 001°39'8821.7
2017-Apr-17 23:25N 58°57' W 002°38'819.1
2017-Apr-17 23:00N 59°01' W 002°52'4 3.4
2017-Apr-17 21:58N 58°60' W 002°58'4 9.3
2017-Apr-17 21:30N 59°01' W 002°50'12 0.6
2017-Apr-17 00:02N 59°04' W 002°27'012.5
2017-Apr-17 00:01N 59°04' W 002°27'611.8
2017-Apr-16 23:29N 59°00' W 002°37'714.2
2017-Apr-16 23:01N 59°01' W 002°50'4 3.8
2017-Apr-16 21:54N 58°60' W 002°58'4 9.1
2017-Apr-16 21:30N 59°01' W 002°51'1020.6
2017-Apr-16 21:00N 58°55' W 002°35'7123.2
2017-Apr-16 17:56N 57°48' W 001°45'922.3
2017-Apr-16 17:30N 57°39' W 001°43'1122.2
2017-Apr-16 17:00N 57°28' W 001°43'1121.9
2017-Apr-16 16:30N 57°18' W 001°51'1121.6
2017-Apr-16 16:00N 57°09' W 002°03'2 2.9
2017-Apr-16 15:28N 57°09' W 002°05'0 0.0
2017-Apr-16 14:58N 57°09' W 002°05'0 0.0
2017-Apr-16 14:28N 57°09' W 002°05'0 0.0
2017-Apr-16 13:28N 57°09' W 002°05'0 0.0
2017-Apr-16 12:58N 57°09' W 002°05'0 0.0
2017-Apr-16 12:28N 57°09' W 002°05'0 0.0
2017-Apr-16 11:58N 57°09' W 002°05'0 0.0
2017-Apr-16 11:28N 57°09' W 002°05'0 0.0
2017-Apr-16 10:58N 57°09' W 002°05'0 0.0
2017-Apr-16 10:28N 57°09' W 002°05'0 0.0
2017-Apr-16 09:58N 57°09' W 002°05'0 0.0
2017-Apr-16 09:28N 57°09' W 002°05'0 0.0
2017-Apr-16 08:58N 57°09' W 002°05'0 0.0
2017-Apr-16 08:28N 57°09' W 002°05'0 0.0
2017-Apr-16 07:58N 57°09' W 002°05'0 0.0
2017-Apr-16 07:28N 57°09' W 002°05'0 0.0
2017-Apr-16 06:58N 57°09' W 002°05'0 0.0
2017-Apr-16 06:28N 57°09' W 002°05'0 0.0
2017-Apr-16 05:58N 57°09' W 002°05'1 1.2
2017-Apr-16 05:31N 57°09' W 002°04'611.4
2017-Apr-16 05:00N 57°13' W 001°57'815.4
2017-Apr-16 04:29N 57°19' W 001°49'1116.9
2017-Apr-16 03:51N 57°28' W 001°38'  

Dump ship's entire track history